KAMA/AMA METAR and TAF weather

Enter ICAO airport designator
Station Type Date Time Source
KAMA METAR 2021/07/29 08:53 UTC NOAA

KAMA 290853Z AUTO 20005KT 10SM CLR 21/17 A3017 RMK AO2 SLP154 T02060167 58001 $


Station Type Date Time Source
KAMA Decoded METAR 2021/07/29 08:53 UTC NOAA

AMARILLO INTERNATIONAL AIRPORT, TX, United States (KAMA) 35-13N 101-43W 1093M
Jul 29, 2021 - 04:53 AM EDT / 2021.07.29 0853 UTC
Wind: from the SSW (200 degrees) at 6 MPH (5 KT):0
Visibility: 10 mile(s):0
Sky conditions: clear
Temperature: 69.1 F (20.6 C)
Dew Point: 62.1 F (16.7 C)
Relative Humidity: 78%
Pressure (altimeter): 30.17 in. Hg (1021 hPa)
Pressure tendency: 0.00 inches (0.1 hPa) lower than three hours ago
ob: KAMA 290853Z AUTO 20005KT 10SM CLR 21/17 A3017 RMK AO2 SLP154 T02060167 58001
cycle: 9

Station Type Date Time Source
KAMA TAF 2021/07/29 06:36 UTC NOAA

TAF KAMA 290535Z 2906/3006 18008KT P6SM FEW120
FM291800 15013KT P6SM FEW250

Example: see airport list